Pilar de Goias, Brazil
Current Conditions -  °F | °C
As of 6:00 PM on Thursday 29 Jan 2015 (Local Time) from SBAN Reporting Station
Scattered Clouds Scattered Clouds  
Wind Chill: 82°   Ceiling: Unl
Heat Index: 84°   Visibility: 6mi
Dew Point: 64°   Wind: 9mph
Humidity: 54%   Direction: 110°ESE
Pressure: 30.06"   Gusts: NA
Location:  14.76°S, 49.58°W
Report Text: SBAN 292000Z 11008KT 9999 SCT025 FEW030TCU 28/18 Q1018
Loading
Personal Weather Stations






























Interactive Weather Map New forecast layout! Learn more

10-Day Weather Forecast

Advertisements
Track Severe Weather on mobile